Integrity — WDF4881 — position and weather

sailwx.info

Track history (hours):
 
Tides and Currents Weather Stations Pressure Air Temp Water Temp Dewpoint Dewpoint Depression Visibility Wind Speed Wind Dir Waves Ship Positions

Integrity

Owner: Canal Barge Company, Inc., Belle Chasse, LA. More information available from US FCC via Universal Licensing System and Coast Guard Vessel Documentation Center.

Last reported at 2017-Sep-21 08:37 UTC. Time now 2017-Sep-21 21:26 UTC.
Position N 29°29' W 094°52'.

Length 19 m; draft 2.8 m.

Type: Towing. MMSI: 367456830.

Date/timePositionNaut miles runAvg speedWind from/ knotsBaromVisibWave heightAir tempDewpointWater temp
2017-Sep-21 08:37N 29°29' W 094°52'1 6.4
2017-Sep-21 08:28N 29°30' W 094°52'3 6.2
2017-Sep-21 08:00N 29°32' W 094°54'3 6.2
2017-Sep-21 07:30N 29°34' W 094°56'3 6.2
2017-Sep-21 07:00N 29°37' W 094°57'3 6.2
2017-Sep-21 06:30N 29°40' W 094°59'3 5.1
2017-Sep-21 06:00N 29°42' W 095°01'2 3.9
2017-Sep-21 05:31N 29°43' W 095°03'0 0.3
2017-Sep-21 05:00N 29°42' W 095°03'0 0.0
2017-Sep-21 04:30N 29°42' W 095°03'0 0.0
2017-Sep-21 04:00N 29°42' W 095°03'2 2.7
2017-Sep-21 03:27N 29°43' W 095°01'4 6.9
2017-Sep-21 02:55N 29°46' W 095°04'2 4.1
2017-Sep-21 02:28N 29°47' W 095°04'0 0.0
2017-Sep-21 01:55N 29°47' W 095°04'0 0.0
2017-Sep-21 01:31N 29°47' W 095°04'0 0.0
2017-Sep-21 00:58N 29°47' W 095°04'0 0.0
2017-Sep-21 00:30N 29°47' W 095°04'0 0.0
2017-Sep-20 23:59N 29°47' W 095°04'0 0.0
2017-Sep-20 22:55N 29°47' W 095°04'0 0.0
2017-Sep-20 22:29N 29°47' W 095°04'0 0.0
2017-Sep-20 21:59N 29°47' W 095°04'0 0.0
2017-Sep-20 21:30N 29°47' W 095°04'0 0.0
2017-Sep-20 20:57N 29°47' W 095°04'0 0.0
2017-Sep-20 20:29N 29°47' W 095°04'0 0.0
2017-Sep-20 19:49N 29°47' W 095°04'0 0.0
2017-Sep-20 19:26N 29°47' W 095°04'0 0.0
2017-Sep-20 18:57N 29°47' W 095°04'0 0.0
2017-Sep-20 18:29N 29°47' W 095°04'0 0.0
2017-Sep-20 18:00N 29°47' W 095°04'0 0.1
2017-Sep-20 16:59N 29°48' W 095°04'2 3.4
2017-Sep-20 16:27N 29°46' W 095°05'3 6.4
2017-Sep-20 16:00N 29°44' W 095°02'2 3.3
2017-Sep-20 15:30N 29°42' W 095°02'1 1.5
2017-Sep-20 15:00N 29°42' W 095°03'0 0.1
2017-Sep-20 13:36N 29°42' W 095°03'0 0.0
2017-Sep-20 13:05N 29°42' W 095°03'0 0.0
2017-Sep-20 12:59N 29°42' W 095°03'0 0.0
2017-Sep-20 12:25N 29°42' W 095°03'0 0.2
2017-Sep-20 11:58N 29°42' W 095°03'0 0.0
2017-Sep-20 11:30N 29°42' W 095°03'0 0.0
2017-Sep-20 10:58N 29°42' W 095°03'0 0.0
2017-Sep-20 10:28N 29°42' W 095°03'0 0.0
2017-Sep-20 10:00N 29°42' W 095°03'0 0.0
2017-Sep-20 09:30N 29°42' W 095°03'0 0.0
2017-Sep-20 08:59N 29°42' W 095°03'0 0.0
2017-Sep-20 08:30N 29°42' W 095°03'0 0.0
2017-Sep-20 08:00N 29°42' W 095°03'0 0.0
2017-Sep-20 07:29N 29°42' W 095°03'0 0.0
2017-Sep-20 06:59N 29°42' W 095°03'0 0.0
2017-Sep-20 06:29N 29°42' W 095°03'0 0.0
2017-Sep-20 05:59N 29°42' W 095°03'0 0.0
2017-Sep-20 05:30N 29°42' W 095°03'0 0.0
2017-Sep-20 04:59N 29°42' W 095°03'0 0.0
2017-Sep-20 04:30N 29°42' W 095°03'0 0.0
2017-Sep-20 03:59N 29°42' W 095°03'0 0.0
2017-Sep-20 03:28N 29°42' W 095°03'0 0.0
2017-Sep-20 03:00N 29°42' W 095°03'0 0.0
2017-Sep-20 02:30N 29°42' W 095°03'0 0.0
2017-Sep-20 02:00N 29°42' W 095°03'0 0.0
2017-Sep-20 01:28N 29°42' W 095°03'0 0.0
2017-Sep-20 01:01N 29°42' W 095°03'0 0.0
2017-Sep-20 00:28N 29°42' W 095°03'0 0.0
2017-Sep-20 00:00N 29°42' W 095°03'0 0.0
2017-Sep-19 23:30N 29°42' W 095°03'0 0.2
2017-Sep-19 23:00N 29°43' W 095°03'2 3.2
2017-Sep-19 22:30N 29°42' W 095°01'3 6.3
2017-Sep-19 22:00N 29°40' W 094°58'3 5.9
2017-Sep-19 21:30N 29°37' W 094°57'4 7.5
2017-Sep-19 20:57N 29°34' W 094°55'6 1.6
2017-Sep-19 17:08N 29°29' W 094°51'1 7.5
2017-Sep-19 16:59N 29°30' W 094°52'4 7.7
2017-Sep-19 16:31N 29°33' W 094°54'4 7.2
2017-Sep-19 16:00N 29°36' W 094°57'4 7.3
2017-Sep-19 15:30N 29°39' W 094°58'4 7.0
2017-Sep-19 15:01N 29°42' W 095°00'2 4.2
2017-Sep-19 14:30N 29°42' W 095°03'0 0.2
2017-Sep-19 13:58N 29°42' W 095°03'0 0.0
2017-Sep-19 13:30N 29°42' W 095°03'0 0.0
2017-Sep-19 12:58N 29°42' W 095°03'0 0.0
2017-Sep-19 12:30N 29°42' W 095°03'0 0.0
2017-Sep-19 12:01N 29°42' W 095°03'0 0.0
2017-Sep-19 11:30N 29°42' W 095°03'0 0.0
2017-Sep-19 10:57N 29°42' W 095°03'0 0.0
2017-Sep-19 10:00N 29°42' W 095°03'0 0.0
2017-Sep-19 09:28N 29°42' W 095°03'0 0.0
2017-Sep-19 08:49N 29°42' W 095°03'0 0.0
2017-Sep-19 08:20N 29°42' W 095°03'0 0.0
2017-Sep-19 07:53N 29°42' W 095°03'0 0.0
2017-Sep-19 07:25N 29°42' W 095°03'0 0.0
2017-Sep-19 06:59N 29°42' W 095°03'0 0.0
2017-Sep-19 06:30N 29°42' W 095°03'0 0.0
2017-Sep-19 05:58N 29°42' W 095°03'0 0.0
2017-Sep-19 05:22N 29°42' W 095°03'0 0.0
2017-Sep-19 04:54N 29°42' W 095°03'0 0.0
2017-Sep-19 04:26N 29°42' W 095°03'0 0.0
2017-Sep-19 03:48N 29°42' W 095°03'0 0.0
2017-Sep-19 03:26N 29°42' W 095°03'0 0.0
2017-Sep-19 02:19N 29°42' W 095°03'0 0.0
2017-Sep-19 01:53N 29°42' W 095°03'0 0.0
2017-Sep-19 00:26N 29°42' W 095°03'0 0.0
2017-Sep-18 22:45N 29°42' W 095°03'0 0.0
2017-Sep-18 21:49N 29°42' W 095°03'0 0.0
2017-Sep-18 21:15N 29°42' W 095°03'0 0.0
2017-Sep-18 21:00N 29°42' W 095°03'0 0.0
2017-Sep-18 20:27N 29°42' W 095°03'0 0.0
2017-Sep-18 19:57N 29°42' W 095°03'0 0.0
2017-Sep-18 19:21N 29°42' W 095°03'0 0.0
2017-Sep-18 18:56N 29°42' W 095°03'0 0.0
2017-Sep-18 17:49N 29°42' W 095°03'0 0.0
2017-Sep-18 16:09N 29°42' W 095°03'0 0.0
2017-Sep-18 15:57N 29°42' W 095°03'0 0.0
2017-Sep-18 15:30N 29°42' W 095°03'0 0.0
2017-Sep-18 14:54N 29°42' W 095°03'0 0.0
2017-Sep-18 14:29N 29°42' W 095°03'0 0.0
2017-Sep-18 14:00N 29°42' W 095°03'0 0.0
2017-Sep-18 13:28N 29°42' W 095°03'0 0.0
2017-Sep-18 12:57N 29°42' W 095°03'0 0.0
2017-Sep-18 12:23N 29°42' W 095°03'0 0.0
2017-Sep-18 11:22N 29°42' W 095°03'0 0.0
2017-Sep-18 10:58N 29°42' W 095°03'0 0.0
2017-Sep-18 10:27N 29°42' W 095°03'0 0.0
2017-Sep-18 09:58N 29°42' W 095°03'0 0.0
2017-Sep-18 09:29N 29°42' W 095°03'0 0.0
2017-Sep-18 09:00N 29°42' W 095°03'0 0.0
2017-Sep-18 08:28N 29°42' W 095°03'0 0.0
2017-Sep-18 07:59N 29°42' W 095°03'0 0.0
2017-Sep-18 07:23N 29°42' W 095°03'0 0.0
2017-Sep-18 06:57N 29°42' W 095°03'0 0.0
2017-Sep-18 06:30N 29°42' W 095°03'0 0.0
2017-Sep-18 05:55N 29°42' W 095°03'0 0.0
2017-Sep-18 05:29N 29°42' W 095°03'0 0.0
2017-Sep-18 04:59N 29°42' W 095°03'0 0.0
2017-Sep-18 04:30N 29°42' W 095°03'0 0.0
2017-Sep-18 03:56N 29°42' W 095°03'0 0.0
2017-Sep-18 03:30N 29°42' W 095°03'0 0.0
2017-Sep-18 02:57N 29°42' W 095°03'0 0.0
2017-Sep-18 02:28N 29°42' W 095°03'0 0.0
2017-Sep-18 01:58N 29°42' W 095°03'0 0.0
2017-Sep-18 01:28N 29°42' W 095°03'0 0.0
2017-Sep-18 01:00N 29°42' W 095°03'0 0.0
2017-Sep-18 00:22N 29°42' W 095°03'0 0.0
2017-Sep-17 23:58N 29°42' W 095°03'0 0.0
2017-Sep-17 23:30N 29°42' W 095°03'0 0.0
2017-Sep-17 22:57N 29°42' W 095°03'0 0.0
2017-Sep-17 22:30N 29°42' W 095°03'0 0.0
2017-Sep-17 21:56N 29°42' W 095°03'0 0.0
2017-Sep-17 21:19N 29°42' W 095°03'0 0.0
2017-Sep-17 20:51N 29°42' W 095°03'0 0.0
2017-Sep-17 20:23N 29°42' W 095°03'0 0.0
2017-Sep-17 19:46N 29°42' W 095°03'0 0.0
2017-Sep-17 19:28N 29°42' W 095°03'0 0.0
2017-Sep-17 15:56N 29°42' W 095°03'0 0.0
2017-Sep-17 15:16N 29°42' W 095°03'0 0.0
2017-Sep-17 15:01N 29°42' W 095°03'0 0.0
2017-Sep-17 14:26N 29°42' W 095°03'0 0.0
2017-Sep-17 14:00N 29°42' W 095°03'0 0.0
2017-Sep-17 13:26N 29°42' W 095°03'0 0.0
2017-Sep-17 13:00N 29°42' W 095°03'0 0.0
2017-Sep-17 12:27N 29°42' W 095°03'0 0.0
2017-Sep-17 12:00N 29°42' W 095°03'0 0.0
2017-Sep-17 11:28N 29°42' W 095°03'0 0.0
2017-Sep-17 10:58N 29°42' W 095°03'0 0.0
2017-Sep-17 10:18N 29°42' W 095°03'0 0.0
2017-Sep-17 09:58N 29°42' W 095°03'0 0.0
2017-Sep-17 09:29N 29°42' W 095°03'0 0.0
2017-Sep-17 08:52N 29°42' W 095°03'0 0.0
2017-Sep-17 08:30N 29°42' W 095°03'0 0.0
2017-Sep-17 07:25N 29°42' W 095°03'0 0.0
2017-Sep-17 06:49N 29°42' W 095°03'0 0.0
2017-Sep-17 05:11N 29°42' W 095°03'0 0.0
2017-Sep-17 04:59N 29°42' W 095°03'0 0.0
2017-Sep-17 04:08N 29°42' W 095°03'0 0.0
2017-Sep-17 03:59N 29°42' W 095°03'0 0.0
2017-Sep-17 03:29N 29°42' W 095°03'0 0.0
2017-Sep-17 02:45N 29°42' W 095°03'0 0.0
2017-Sep-17 02:29N 29°42' W 095°03'0 0.0
2017-Sep-17 02:00N 29°42' W 095°03'0 0.0
2017-Sep-17 01:28N 29°42' W 095°03'0 0.0
2017-Sep-17 01:00N 29°42' W 095°03'0 0.0
2017-Sep-17 00:27N 29°42' W 095°03'0 0.0
2017-Sep-17 00:00N 29°42' W 095°03'0 0.0
2017-Sep-16 23:26N 29°42' W 095°03'0 0.0
2017-Sep-16 22:55N 29°42' W 095°03'0 0.0
2017-Sep-16 22:30N 29°42' W 095°03'0 0.0
2017-Sep-16 21:59N 29°42' W 095°03'0 0.0
2017-Sep-16 21:29N 29°42' W 095°03'0 0.0
2017-Sep-16 20:59N 29°42' W 095°03'0 0.0
2017-Sep-16 20:27N 29°42' W 095°03'0 0.0
2017-Sep-16 20:01N 29°42' W 095°03'0 0.0
2017-Sep-16 19:30N 29°42' W 095°03'0 0.0
2017-Sep-16 19:00N 29°42' W 095°03'0 0.0
2017-Sep-16 18:30N 29°42' W 095°03'0 0.0
2017-Sep-16 17:59N 29°42' W 095°03'0 0.0
2017-Sep-16 17:30N 29°42' W 095°03'0 0.0
2017-Sep-16 17:00N 29°42' W 095°03'0 0.0
2017-Sep-16 16:29N 29°42' W 095°03'0 0.0
2017-Sep-16 15:58N 29°42' W 095°03'0 0.0
2017-Sep-16 15:30N 29°42' W 095°03'0 0.0
2017-Sep-16 15:00N 29°42' W 095°03'0 0.0
2017-Sep-16 14:30N 29°42' W 095°03'0 0.0
2017-Sep-16 13:57N 29°42' W 095°03'0 0.0
2017-Sep-16 13:30N 29°42' W 095°03'0 0.0
2017-Sep-16 12:58N 29°42' W 095°03'0 0.0
2017-Sep-16 12:31N 29°42' W 095°03'0 0.0
2017-Sep-16 12:00N 29°42' W 095°03'0 0.2
2017-Sep-16 11:29N 29°42' W 095°03'0 0.0
2017-Sep-16 10:59N 29°42' W 095°03'0 0.0
2017-Sep-16 10:30N 29°42' W 095°03'0 0.0
2017-Sep-16 09:59N 29°42' W 095°03'0 0.0
2017-Sep-16 09:30N 29°42' W 095°03'0 0.0
2017-Sep-16 09:00N 29°42' W 095°03'0 0.0
2017-Sep-16 08:30N 29°42' W 095°03'0 0.0
2017-Sep-16 07:53N 29°42' W 095°03'0 0.0
2017-Sep-16 07:30N 29°42' W 095°03'0 0.0
2017-Sep-16 06:55N 29°42' W 095°03'0 0.0
2017-Sep-16 06:26N 29°42' W 095°03'0 0.0
2017-Sep-16 06:00N 29°42' W 095°03'0 0.0
2017-Sep-16 05:30N 29°42' W 095°03'0 0.0
2017-Sep-16 05:00N 29°42' W 095°03'0 0.0
2017-Sep-16 04:31N 29°42' W 095°03'0 0.0
2017-Sep-16 04:00N 29°42' W 095°03'0 0.0
2017-Sep-16 03:27N 29°42' W 095°03'0 0.0
2017-Sep-16 03:00N 29°42' W 095°03'0 0.0
2017-Sep-16 02:30N 29°42' W 095°03'0 0.0
2017-Sep-16 01:59N 29°42' W 095°03'0 0.0
2017-Sep-16 01:28N 29°42' W 095°03'0 0.0
2017-Sep-16 00:54N 29°42' W 095°03'0 0.0
2017-Sep-16 00:30N 29°42' W 095°03'0 0.0
2017-Sep-15 23:50N 29°42' W 095°03'0 0.0
2017-Sep-15 23:20N 29°42' W 095°03'0 0.0
2017-Sep-15 23:00N 29°42' W 095°03'0 0.0
2017-Sep-15 22:30N 29°42' W 095°03'0 0.0
2017-Sep-15 21:14N 29°42' W 095°03'0 0.0
2017-Sep-15 21:00N 29°42' W 095°03'0 0.0
2017-Sep-15 20:28N 29°42' W 095°03'0 0.0
2017-Sep-15 20:00N 29°42' W 095°03'0 0.0
2017-Sep-15 19:24N 29°42' W 095°03'0 0.0
2017-Sep-15 18:59N 29°42' W 095°03'0 0.0
2017-Sep-15 18:28N 29°42' W 095°03'0 0.0
2017-Sep-15 17:58N 29°42' W 095°03'0 0.0
2017-Sep-15 17:19N 29°42' W 095°03'0 0.2
2017-Sep-15 17:01N 29°42' W 095°03'0 0.1
2017-Sep-15 16:30N 29°42' W 095°03'0 0.0
2017-Sep-15 15:58N 29°42' W 095°03'0 0.0
2017-Sep-15 15:30N 29°42' W 095°03'0 0.0
2017-Sep-15 15:00N 29°42' W 095°03'0 0.0
2017-Sep-15 14:28N 29°42' W 095°03'0 0.0
2017-Sep-15 14:00N 29°42' W 095°03'0 0.0
2017-Sep-15 13:30N 29°42' W 095°03'0 0.0
2017-Sep-15 13:00N 29°42' W 095°03'0 0.0
2017-Sep-15 12:29N 29°42' W 095°03'0 0.0
2017-Sep-15 12:00N 29°42' W 095°03'0 0.0
2017-Sep-15 11:29N 29°42' W 095°03'0 0.0
2017-Sep-15 10:59N 29°42' W 095°03'0 0.0
2017-Sep-15 10:25N 29°42' W 095°03'0 0.4
2017-Sep-15 09:58N 29°43' W 095°03'1 2.9
2017-Sep-15 09:31N 29°42' W 095°01'3 6.7
2017-Sep-15 09:00N 29°40' W 094°58'3 6.2
2017-Sep-15 08:31N 29°37' W 094°58'3 5.4
2017-Sep-15 08:00N 29°37' W 095°01'0 0.7
2017-Sep-15 07:30N 29°37' W 095°01'0 0.3
2017-Sep-15 07:00N 29°37' W 095°01'0 0.0
2017-Sep-15 06:31N 29°37' W 095°01'0 0.0
2017-Sep-15 06:00N 29°37' W 095°01'0 0.3
2017-Sep-15 05:31N 29°37' W 095°01'0 0.0
2017-Sep-15 05:00N 29°37' W 095°01'0 0.3
2017-Sep-15 04:30N 29°37' W 095°01'0 0.3
2017-Sep-15 04:00N 29°37' W 095°01'0 0.0
2017-Sep-15 03:30N 29°37' W 095°01'0 0.0
2017-Sep-15 02:59N 29°37' W 095°01'0 0.0
2017-Sep-15 02:31N 29°37' W 095°01'0 0.0
2017-Sep-15 02:01N 29°37' W 095°01'0 0.0
2017-Sep-15 01:31N 29°37' W 095°01'0 0.0
2017-Sep-15 01:01N 29°37' W 095°01'0 0.0
2017-Sep-15 00:31N 29°37' W 095°01'0 0.0
2017-Sep-15 00:00N 29°37' W 095°01'0 0.0
2017-Sep-14 23:30N 29°37' W 095°01'0 0.0
2017-Sep-14 23:00N 29°37' W 095°01'0 0.3
2017-Sep-14 22:30N 29°37' W 095°01'0 0.3
2017-Sep-14 22:00N 29°37' W 095°01'0 0.0
2017-Sep-14 21:31N 29°37' W 095°01'0 0.0
2017-Sep-14 21:00N 29°37' W 095°01'0 0.0
2017-Sep-14 20:31N 29°37' W 095°01'0 0.0
2017-Sep-14 20:00N 29°37' W 095°01'0 0.3
2017-Sep-14 19:30N 29°37' W 095°01'0 0.3
2017-Sep-14 19:00N 29°37' W 095°02'0 0.3
2017-Sep-14 18:30N 29°37' W 095°01'0 0.0
2017-Sep-14 18:00N 29°37' W 095°01'0 0.3
2017-Sep-14 17:30N 29°37' W 095°01'0 0.3
2017-Sep-14 17:00N 29°37' W 095°01'0 0.0
2017-Sep-14 16:31N 29°37' W 095°01'0 0.2
2017-Sep-14 16:00N 29°37' W 095°01'0 0.0
2017-Sep-14 15:30N 29°37' W 095°01'0 0.0
2017-Sep-14 15:00N 29°37' W 095°01'0 0.0
2017-Sep-14 14:31N 29°37' W 095°01'0 0.0
2017-Sep-14 14:00N 29°37' W 095°01'0 0.0
2017-Sep-14 13:30N 29°37' W 095°01'0 0.0
2017-Sep-14 13:00N 29°37' W 095°01'0 0.0
2017-Sep-14 12:29N 29°37' W 095°01'0 0.0
2017-Sep-14 12:01N 29°37' W 095°01'0 0.0
2017-Sep-14 11:30N 29°37' W 095°01'0 0.0
2017-Sep-14 11:00N 29°37' W 095°01'0 0.2
2017-Sep-14 10:31N 29°37' W 095°01'0 0.2
2017-Sep-14 10:00N 29°37' W 095°01'0 0.0
2017-Sep-14 09:31N 29°37' W 095°01'0 0.0
2017-Sep-14 09:01N 29°37' W 095°01'0 0.0
2017-Sep-14 08:30N 29°37' W 095°01'0 0.0
2017-Sep-14 08:00N 29°37' W 095°01'0 0.0
2017-Sep-14 07:30N 29°37' W 095°01'0 0.0
2017-Sep-14 07:01N 29°37' W 095°01'0 0.0
2017-Sep-14 06:30N 29°37' W 095°01'0 0.2
2017-Sep-14 06:00N 29°37' W 095°01'0 0.2
2017-Sep-14 05:30N 29°37' W 095°01'0 0.2
2017-Sep-14 05:00N 29°37' W 095°01'0 0.0
2017-Sep-14 04:30N 29°37' W 095°01'0 0.0
2017-Sep-14 04:00N 29°37' W 095°01'0 0.3
2017-Sep-14 03:31N 29°37' W 095°01'0 0.3
2017-Sep-14 03:01N 29°37' W 095°01'1 1.8
2017-Sep-14 02:31N 29°37' W 095°00'2 4.4
2017-Sep-14 02:00N 29°37' W 094°58'2 3.5
2017-Sep-14 01:27N 29°39' W 094°58'2 4.7
2017-Sep-14 01:01N 29°41' W 094°59'3 5.1
2017-Sep-14 00:30N 29°42' W 095°01'1 2.5
2017-Sep-13 23:59N 29°42' W 095°03'0 0.4
2017-Sep-13 23:30N 29°42' W 095°03'0 0.1
2017-Sep-13 23:00N 29°42' W 095°03'0 0.0
2017-Sep-13 22:30N 29°42' W 095°03'0 0.0
2017-Sep-13 22:01N 29°42' W 095°03'0 0.0
2017-Sep-13 21:30N 29°42' W 095°03'0 0.0
2017-Sep-13 21:00N 29°42' W 095°03'0 0.0
2017-Sep-13 20:30N 29°42' W 095°03'0 0.0
2017-Sep-13 19:58N 29°42' W 095°03'0 0.0
2017-Sep-13 19:30N 29°42' W 095°03'0 0.0
2017-Sep-13 18:59N 29°42' W 095°03'0 0.0
2017-Sep-13 18:30N 29°42' W 095°03'0 0.0
2017-Sep-13 18:00N 29°42' W 095°03'0 0.0
2017-Sep-13 17:31N 29°42' W 095°03'0 0.0
2017-Sep-13 17:00N 29°42' W 095°03'0 0.0
2017-Sep-13 16:29N 29°42' W 095°03'0 0.0
2017-Sep-13 16:00N 29°42' W 095°03'0 0.0
2017-Sep-13 15:30N 29°42' W 095°03'0 0.0
2017-Sep-13 15:00N 29°42' W 095°03'0 0.0
2017-Sep-13 14:30N 29°42' W 095°03'0 0.0
2017-Sep-13 14:00N 29°42' W 095°03'0 0.0
2017-Sep-13 13:30N 29°42' W 095°03'0 0.0
2017-Sep-13 13:00N 29°42' W 095°03'0 0.0
2017-Sep-13 12:31N 29°42' W 095°03'0 0.0
2017-Sep-13 12:00N 29°42' W 095°03'0 0.0
2017-Sep-13 11:30N 29°42' W 095°03'0 0.0
2017-Sep-13 11:00N 29°42' W 095°03'0 0.0
2017-Sep-13 10:30N 29°42' W 095°03'0 0.0
2017-Sep-13 10:00N 29°42' W 095°03'0 0.0
2017-Sep-13 09:30N 29°42' W 095°03'0 0.1
2017-Sep-13 09:00N 29°42' W 095°03'0 0.2
2017-Sep-13 08:30N 29°42' W 095°03'0 0.0
2017-Sep-13 08:00N 29°42' W 095°03'0 0.0
2017-Sep-13 07:30N 29°42' W 095°03'0 0.0
2017-Sep-13 06:58N 29°42' W 095°03'0 0.0
2017-Sep-13 06:30N 29°42' W 095°03'0 0.0
2017-Sep-13 05:59N 29°42' W 095°03'0 0.0
2017-Sep-13 05:30N 29°42' W 095°03'0 0.0
2017-Sep-13 05:00N 29°42' W 095°03'0 0.0
2017-Sep-13 04:30N 29°42' W 095°03'0 0.0
2017-Sep-13 03:59N 29°42' W 095°03'0 0.0
2017-Sep-13 03:30N 29°42' W 095°03'0 0.0
2017-Sep-13 03:00N 29°42' W 095°03'0 0.0
2017-Sep-13 02:30N 29°42' W 095°03'0 0.0
2017-Sep-13 02:00N 29°42' W 095°03'0 0.0
2017-Sep-13 01:30N 29°42' W 095°03'0 0.0
2017-Sep-13 01:00N 29°42' W 095°03'0 0.0
2017-Sep-13 00:28N 29°42' W 095°03'0 0.3
2017-Sep-12 23:56N 29°42' W 095°03'0 0.3
2017-Sep-12 23:30N 29°42' W 095°03'0 0.1
2017-Sep-12 23:01N 29°42' W 095°03'0 0.0
2017-Sep-12 22:30N 29°42' W 095°03'0 0.0
2017-Sep-12 22:00N 29°42' W 095°03'0 0.0
2017-Sep-12 21:30N 29°42' W 095°03'0 0.0
2017-Sep-12 21:00N 29°42' W 095°03'0 0.0
2017-Sep-12 20:30N 29°42' W 095°03'0 0.0
2017-Sep-12 20:00N 29°42' W 095°03'0 0.0
2017-Sep-12 19:30N 29°42' W 095°03'0 0.0
2017-Sep-12 19:01N 29°42' W 095°03'0 0.0
2017-Sep-12 18:31N 29°42' W 095°03'0 0.0
2017-Sep-12 18:01N 29°42' W 095°03'0 0.0
2017-Sep-12 17:30N 29°42' W 095°03'0 0.0
2017-Sep-12 17:00N 29°42' W 095°03'0 0.0
2017-Sep-12 16:30N 29°42' W 095°03'0 0.0
2017-Sep-12 16:01N 29°42' W 095°03'0 0.0
2017-Sep-12 15:30N 29°42' W 095°03'0 0.0
2017-Sep-12 15:00N 29°42' W 095°03'0 0.0
2017-Sep-12 14:31N 29°42' W 095°03'0 0.0
2017-Sep-12 14:01N 29°42' W 095°03'0 0.0
2017-Sep-12 13:30N 29°42' W 095°03'0 0.0
2017-Sep-12 13:00N 29°42' W 095°03'0 0.0
2017-Sep-12 12:30N 29°42' W 095°03'0 0.0
2017-Sep-12 12:01N 29°42' W 095°03'0 0.0
2017-Sep-12 11:31N 29°42' W 095°03'0 0.0
2017-Sep-12 11:00N 29°42' W 095°03'0 0.0
2017-Sep-12 10:30N 29°42' W 095°03'0 0.0
2017-Sep-12 10:00N 29°42' W 095°03'0 0.0
2017-Sep-12 09:30N 29°42' W 095°03'0 0.0
2017-Sep-12 09:00N 29°42' W 095°03'0 0.0
2017-Sep-12 08:30N 29°42' W 095°03'0 0.0
2017-Sep-12 08:00N 29°42' W 095°03'0 0.0
2017-Sep-12 07:30N 29°42' W 095°03'0 0.0
2017-Sep-12 07:00N 29°42' W 095°03'0 0.0
2017-Sep-12 06:30N 29°42' W 095°03'0 0.0
2017-Sep-12 06:00N 29°42' W 095°03'0 0.0
2017-Sep-12 05:30N 29°42' W 095°03'0 0.0
2017-Sep-12 05:00N 29°42' W 095°03'0 0.0
2017-Sep-12 04:30N 29°42' W 095°03'0 0.0
2017-Sep-12 04:00N 29°42' W 095°03'0 0.0
2017-Sep-12 03:31N 29°42' W 095°03'0 0.0
2017-Sep-12 03:00N 29°42' W 095°03'0 0.0
2017-Sep-12 02:30N 29°42' W 095°03'0 0.0
2017-Sep-12 02:00N 29°42' W 095°03'0 0.0
2017-Sep-12 01:30N 29°42' W 095°03'0 0.0
2017-Sep-12 01:00N 29°42' W 095°03'0 0.0
2017-Sep-12 00:30N 29°42' W 095°03'0 0.0
2017-Sep-12 00:00N 29°42' W 095°03'0 0.0
2017-Sep-11 23:30N 29°42' W 095°03'0 0.0
2017-Sep-11 23:01N 29°42' W 095°03'0 0.0
2017-Sep-11 22:30N 29°42' W 095°03'0 0.0
2017-Sep-11 22:01N 29°42' W 095°03'0 0.0
2017-Sep-11 21:30N 29°42' W 095°03'0 0.0
2017-Sep-11 21:00N 29°42' W 095°03'0 0.0
2017-Sep-11 20:31N 29°42' W 095°03'0 0.0
2017-Sep-11 20:01N 29°42' W 095°03'0 0.0
2017-Sep-11 19:30N 29°42' W 095°03'0 0.0
2017-Sep-11 19:00N 29°42' W 095°03'0 0.0
2017-Sep-11 18:31N 29°42' W 095°03'0 0.0
2017-Sep-11 18:01N 29°42' W 095°03'0 0.0
2017-Sep-11 17:30N 29°42' W 095°03'0 0.0
2017-Sep-11 17:01N 29°42' W 095°03'0 0.0
2017-Sep-11 16:30N 29°42' W 095°03'0 0.0
2017-Sep-11 16:01N 29°42' W 095°03'0 0.0
2017-Sep-11 15:31N 29°42' W 095°03'0 0.0
2017-Sep-11 15:00N 29°42' W 095°03'0 0.0
2017-Sep-11 14:30N 29°42' W 095°03'0 0.0
2017-Sep-11 14:00N 29°42' W 095°03'0 0.0
2017-Sep-11 13:30N 29°42' W 095°03'0 0.0
2017-Sep-11 13:00N 29°42' W 095°03'0 0.0
2017-Sep-11 12:30N 29°42' W 095°03'0 0.0
2017-Sep-11 12:00N 29°42' W 095°03'0 0.0
2017-Sep-11 11:30N 29°42' W 095°03'0 0.0
2017-Sep-11 11:01N 29°42' W 095°03'0 0.0
2017-Sep-11 10:31N 29°42' W 095°03'0 0.0
2017-Sep-11 10:01N 29°42' W 095°03'0 0.0
2017-Sep-11 09:30N 29°42' W 095°03'0 0.0
2017-Sep-11 09:01N 29°42' W 095°03'  
Track history (hours):
 
Tides and Currents Weather Stations Pressure Air Temp Water Temp Dewpoint Dewpoint Depression Visibility Wind Speed Wind Dir Waves Ship Positions

Integrity

Owner: Canal Barge Company, Inc., Belle Chasse, LA. More information available from US FCC via Universal Licensing System and Coast Guard Vessel Documentation Center.

Last reported at 2017-Sep-21 08:37 UTC. Time now 2017-Sep-21 21:26 UTC.
Position N 29°29' W 094°52'.

Length 19 m; draft 2.8 m.

Type: Towing. MMSI: 367456830.

Date/timePositionNaut miles runAvg speedWind from/ knotsBaromVisibWave heightAir tempDewpointWater temp
2017-Sep-21 08:37N 29°29' W 094°52'1 6.4
2017-Sep-21 08:28N 29°30' W 094°52'3 6.2
2017-Sep-21 08:00N 29°32' W 094°54'3 6.2
2017-Sep-21 07:30N 29°34' W 094°56'3 6.2
2017-Sep-21 07:00N 29°37' W 094°57'3 6.2
2017-Sep-21 06:30N 29°40' W 094°59'3 5.1
2017-Sep-21 06:00N 29°42' W 095°01'2 3.9
2017-Sep-21 05:31N 29°43' W 095°03'0 0.3
2017-Sep-21 05:00N 29°42' W 095°03'0 0.0
2017-Sep-21 04:30N 29°42' W 095°03'0 0.0
2017-Sep-21 04:00N 29°42' W 095°03'2 2.7
2017-Sep-21 03:27N 29°43' W 095°01'4 6.9
2017-Sep-21 02:55N 29°46' W 095°04'2 4.1
2017-Sep-21 02:28N 29°47' W 095°04'0 0.0
2017-Sep-21 01:55N 29°47' W 095°04'0 0.0
2017-Sep-21 01:31N 29°47' W 095°04'0 0.0
2017-Sep-21 00:58N 29°47' W 095°04'0 0.0
2017-Sep-21 00:30N 29°47' W 095°04'0 0.0
2017-Sep-20 23:59N 29°47' W 095°04'0 0.0
2017-Sep-20 22:55N 29°47' W 095°04'0 0.0
2017-Sep-20 22:29N 29°47' W 095°04'0 0.0
2017-Sep-20 21:59N 29°47' W 095°04'0 0.0
2017-Sep-20 21:30N 29°47' W 095°04'0 0.0
2017-Sep-20 20:57N 29°47' W 095°04'0 0.0
2017-Sep-20 20:29N 29°47' W 095°04'0 0.0
2017-Sep-20 19:49N 29°47' W 095°04'0 0.0
2017-Sep-20 19:26N 29°47' W 095°04'0 0.0
2017-Sep-20 18:57N 29°47' W 095°04'0 0.0
2017-Sep-20 18:29N 29°47' W 095°04'0 0.0
2017-Sep-20 18:00N 29°47' W 095°04'0 0.1
2017-Sep-20 16:59N 29°48' W 095°04'2 3.4
2017-Sep-20 16:27N 29°46' W 095°05'3 6.4
2017-Sep-20 16:00N 29°44' W 095°02'2 3.3
2017-Sep-20 15:30N 29°42' W 095°02'1 1.5
2017-Sep-20 15:00N 29°42' W 095°03'0 0.1
2017-Sep-20 13:36N 29°42' W 095°03'0 0.0
2017-Sep-20 13:05N 29°42' W 095°03'0 0.0
2017-Sep-20 12:59N 29°42' W 095°03'0 0.0
2017-Sep-20 12:25N 29°42' W 095°03'0 0.2
2017-Sep-20 11:58N 29°42' W 095°03'0 0.0
2017-Sep-20 11:30N 29°42' W 095°03'0 0.0
2017-Sep-20 10:58N 29°42' W 095°03'0 0.0
2017-Sep-20 10:28N 29°42' W 095°03'0 0.0
2017-Sep-20 10:00N 29°42' W 095°03'0 0.0
2017-Sep-20 09:30N 29°42' W 095°03'0 0.0
2017-Sep-20 08:59N 29°42' W 095°03'0 0.0
2017-Sep-20 08:30N 29°42' W 095°03'0 0.0
2017-Sep-20 08:00N 29°42' W 095°03'0 0.0
2017-Sep-20 07:29N 29°42' W 095°03'0 0.0
2017-Sep-20 06:59N 29°42' W 095°03'0 0.0
2017-Sep-20 06:29N 29°42' W 095°03'0 0.0
2017-Sep-20 05:59N 29°42' W 095°03'0 0.0
2017-Sep-20 05:30N 29°42' W 095°03'0 0.0
2017-Sep-20 04:59N 29°42' W 095°03'0 0.0
2017-Sep-20 04:30N 29°42' W 095°03'0 0.0
2017-Sep-20 03:59N 29°42' W 095°03'0 0.0
2017-Sep-20 03:28N 29°42' W 095°03'0 0.0
2017-Sep-20 03:00N 29°42' W 095°03'0 0.0
2017-Sep-20 02:30N 29°42' W 095°03'0 0.0
2017-Sep-20 02:00N 29°42' W 095°03'0 0.0
2017-Sep-20 01:28N 29°42' W 095°03'0 0.0
2017-Sep-20 01:01N 29°42' W 095°03'0 0.0
2017-Sep-20 00:28N 29°42' W 095°03'0 0.0
2017-Sep-20 00:00N 29°42' W 095°03'0 0.0
2017-Sep-19 23:30N 29°42' W 095°03'0 0.2
2017-Sep-19 23:00N 29°43' W 095°03'2 3.2
2017-Sep-19 22:30N 29°42' W 095°01'3 6.3
2017-Sep-19 22:00N 29°40' W 094°58'3 5.9
2017-Sep-19 21:30N 29°37' W 094°57'4 7.5
2017-Sep-19 20:57N 29°34' W 094°55'6 1.6
2017-Sep-19 17:08N 29°29' W 094°51'1 7.5
2017-Sep-19 16:59N 29°30' W 094°52'4 7.7
2017-Sep-19 16:31N 29°33' W 094°54'4 7.2
2017-Sep-19 16:00N 29°36' W 094°57'4 7.3
2017-Sep-19 15:30N 29°39' W 094°58'4 7.0
2017-Sep-19 15:01N 29°42' W 095°00'2 4.2
2017-Sep-19 14:30N 29°42' W 095°03'0 0.2
2017-Sep-19 13:58N 29°42' W 095°03'0 0.0
2017-Sep-19 13:30N 29°42' W 095°03'0 0.0
2017-Sep-19 12:58N 29°42' W 095°03'0 0.0
2017-Sep-19 12:30N 29°42' W 095°03'0 0.0
2017-Sep-19 12:01N 29°42' W 095°03'0 0.0
2017-Sep-19 11:30N 29°42' W 095°03'0 0.0
2017-Sep-19 10:57N 29°42' W 095°03'0 0.0
2017-Sep-19 10:00N 29°42' W 095°03'0 0.0
2017-Sep-19 09:28N 29°42' W 095°03'0 0.0
2017-Sep-19 08:49N 29°42' W 095°03'0 0.0
2017-Sep-19 08:20N 29°42' W 095°03'0 0.0
2017-Sep-19 07:53N 29°42' W 095°03'0 0.0
2017-Sep-19 07:25N 29°42' W 095°03'0 0.0
2017-Sep-19 06:59N 29°42' W 095°03'0 0.0
2017-Sep-19 06:30N 29°42' W 095°03'0 0.0
2017-Sep-19 05:58N 29°42' W 095°03'0 0.0
2017-Sep-19 05:22N 29°42' W 095°03'0 0.0
2017-Sep-19 04:54N 29°42' W 095°03'0 0.0
2017-Sep-19 04:26N 29°42' W 095°03'0 0.0
2017-Sep-19 03:48N 29°42' W 095°03'0 0.0
2017-Sep-19 03:26N 29°42' W 095°03'0 0.0
2017-Sep-19 02:19N 29°42' W 095°03'0 0.0
2017-Sep-19 01:53N 29°42' W 095°03'0 0.0
2017-Sep-19 00:26N 29°42' W 095°03'0 0.0
2017-Sep-18 22:45N 29°42' W 095°03'0 0.0
2017-Sep-18 21:49N 29°42' W 095°03'0 0.0
2017-Sep-18 21:15N 29°42' W 095°03'0 0.0
2017-Sep-18 21:00N 29°42' W 095°03'0 0.0
2017-Sep-18 20:27N 29°42' W 095°03'0 0.0
2017-Sep-18 19:57N 29°42' W 095°03'0 0.0
2017-Sep-18 19:21N 29°42' W 095°03'0 0.0
2017-Sep-18 18:56N 29°42' W 095°03'0 0.0
2017-Sep-18 17:49N 29°42' W 095°03'0 0.0
2017-Sep-18 16:09N 29°42' W 095°03'0 0.0
2017-Sep-18 15:57N 29°42' W 095°03'0 0.0
2017-Sep-18 15:30N 29°42' W 095°03'0 0.0
2017-Sep-18 14:54N 29°42' W 095°03'0 0.0
2017-Sep-18 14:29N 29°42' W 095°03'0 0.0
2017-Sep-18 14:00N 29°42' W 095°03'0 0.0
2017-Sep-18 13:28N 29°42' W 095°03'0 0.0
2017-Sep-18 12:57N 29°42' W 095°03'0 0.0
2017-Sep-18 12:23N 29°42' W 095°03'0 0.0
2017-Sep-18 11:22N 29°42' W 095°03'0 0.0
2017-Sep-18 10:58N 29°42' W 095°03'0 0.0
2017-Sep-18 10:27N 29°42' W 095°03'0 0.0
2017-Sep-18 09:58N 29°42' W 095°03'0 0.0
2017-Sep-18 09:29N 29°42' W 095°03'0 0.0
2017-Sep-18 09:00N 29°42' W 095°03'0 0.0
2017-Sep-18 08:28N 29°42' W 095°03'0 0.0
2017-Sep-18 07:59N 29°42' W 095°03'0 0.0
2017-Sep-18 07:23N 29°42' W 095°03'0 0.0
2017-Sep-18 06:57N 29°42' W 095°03'0 0.0
2017-Sep-18 06:30N 29°42' W 095°03'0 0.0
2017-Sep-18 05:55N 29°42' W 095°03'0 0.0
2017-Sep-18 05:29N 29°42' W 095°03'0 0.0
2017-Sep-18 04:59N 29°42' W 095°03'0 0.0
2017-Sep-18 04:30N 29°42' W 095°03'0 0.0
2017-Sep-18 03:56N 29°42' W 095°03'0 0.0
2017-Sep-18 03:30N 29°42' W 095°03'0 0.0
2017-Sep-18 02:57N 29°42' W 095°03'0 0.0
2017-Sep-18 02:28N 29°42' W 095°03'0 0.0
2017-Sep-18 01:58N 29°42' W 095°03'0 0.0
2017-Sep-18 01:28N 29°42' W 095°03'0 0.0
2017-Sep-18 01:00N 29°42' W 095°03'0 0.0
2017-Sep-18 00:22N 29°42' W 095°03'0 0.0
2017-Sep-17 23:58N 29°42' W 095°03'0 0.0
2017-Sep-17 23:30N 29°42' W 095°03'0 0.0
2017-Sep-17 22:57N 29°42' W 095°03'0 0.0
2017-Sep-17 22:30N 29°42' W 095°03'0 0.0
2017-Sep-17 21:56N 29°42' W 095°03'0 0.0
2017-Sep-17 21:19N 29°42' W 095°03'0 0.0
2017-Sep-17 20:51N 29°42' W 095°03'0 0.0
2017-Sep-17 20:23N 29°42' W 095°03'0 0.0
2017-Sep-17 19:46N 29°42' W 095°03'0 0.0
2017-Sep-17 19:28N 29°42' W 095°03'0 0.0
2017-Sep-17 15:56N 29°42' W 095°03'0 0.0
2017-Sep-17 15:16N 29°42' W 095°03'0 0.0
2017-Sep-17 15:01N 29°42' W 095°03'0 0.0
2017-Sep-17 14:26N 29°42' W 095°03'0 0.0
2017-Sep-17 14:00N 29°42' W 095°03'0 0.0
2017-Sep-17 13:26N 29°42' W 095°03'0 0.0
2017-Sep-17 13:00N 29°42' W 095°03'0 0.0
2017-Sep-17 12:27N 29°42' W 095°03'0 0.0
2017-Sep-17 12:00N 29°42' W 095°03'0 0.0
2017-Sep-17 11:28N 29°42' W 095°03'0 0.0
2017-Sep-17 10:58N 29°42' W 095°03'0 0.0
2017-Sep-17 10:18N 29°42' W 095°03'0 0.0
2017-Sep-17 09:58N 29°42' W 095°03'0 0.0
2017-Sep-17 09:29N 29°42' W 095°03'0 0.0
2017-Sep-17 08:52N 29°42' W 095°03'0 0.0
2017-Sep-17 08:30N 29°42' W 095°03'0 0.0
2017-Sep-17 07:25N 29°42' W 095°03'0 0.0
2017-Sep-17 06:49N 29°42' W 095°03'0 0.0
2017-Sep-17 05:11N 29°42' W 095°03'0 0.0
2017-Sep-17 04:59N 29°42' W 095°03'0 0.0
2017-Sep-17 04:08N 29°42' W 095°03'0 0.0
2017-Sep-17 03:59N 29°42' W 095°03'0 0.0
2017-Sep-17 03:29N 29°42' W 095°03'0 0.0
2017-Sep-17 02:45N 29°42' W 095°03'0 0.0
2017-Sep-17 02:29N 29°42' W 095°03'0 0.0
2017-Sep-17 02:00N 29°42' W 095°03'0 0.0
2017-Sep-17 01:28N 29°42' W 095°03'0 0.0
2017-Sep-17 01:00N 29°42' W 095°03'0 0.0
2017-Sep-17 00:27N 29°42' W 095°03'0 0.0
2017-Sep-17 00:00N 29°42' W 095°03'0 0.0
2017-Sep-16 23:26N 29°42' W 095°03'0 0.0
2017-Sep-16 22:55N 29°42' W 095°03'0 0.0
2017-Sep-16 22:30N 29°42' W 095°03'0 0.0
2017-Sep-16 21:59N 29°42' W 095°03'0 0.0
2017-Sep-16 21:29N 29°42' W 095°03'0 0.0
2017-Sep-16 20:59N 29°42' W 095°03'0 0.0
2017-Sep-16 20:27N 29°42' W 095°03'0 0.0
2017-Sep-16 20:01N 29°42' W 095°03'0 0.0
2017-Sep-16 19:30N 29°42' W 095°03'0 0.0
2017-Sep-16 19:00N 29°42' W 095°03'0 0.0
2017-Sep-16 18:30N 29°42' W 095°03'0 0.0
2017-Sep-16 17:59N 29°42' W 095°03'0 0.0
2017-Sep-16 17:30N 29°42' W 095°03'0 0.0
2017-Sep-16 17:00N 29°42' W 095°03'0 0.0
2017-Sep-16 16:29N 29°42' W 095°03'0 0.0
2017-Sep-16 15:58N 29°42' W 095°03'0 0.0
2017-Sep-16 15:30N 29°42' W 095°03'0 0.0
2017-Sep-16 15:00N 29°42' W 095°03'0 0.0
2017-Sep-16 14:30N 29°42' W 095°03'0 0.0
2017-Sep-16 13:57N 29°42' W 095°03'0 0.0
2017-Sep-16 13:30N 29°42' W 095°03'0 0.0
2017-Sep-16 12:58N 29°42' W 095°03'0 0.0
2017-Sep-16 12:31N 29°42' W 095°03'0 0.0
2017-Sep-16 12:00N 29°42' W 095°03'0 0.2
2017-Sep-16 11:29N 29°42' W 095°03'0 0.0
2017-Sep-16 10:59N 29°42' W 095°03'0 0.0
2017-Sep-16 10:30N 29°42' W 095°03'0 0.0
2017-Sep-16 09:59N 29°42' W 095°03'0 0.0
2017-Sep-16 09:30N 29°42' W 095°03'0 0.0
2017-Sep-16 09:00N 29°42' W 095°03'0 0.0
2017-Sep-16 08:30N 29°42' W 095°03'0 0.0
2017-Sep-16 07:53N 29°42' W 095°03'0 0.0
2017-Sep-16 07:30N 29°42' W 095°03'0 0.0
2017-Sep-16 06:55N 29°42' W 095°03'0 0.0
2017-Sep-16 06:26N 29°42' W 095°03'0 0.0
2017-Sep-16 06:00N 29°42' W 095°03'0 0.0
2017-Sep-16 05:30N 29°42' W 095°03'0 0.0
2017-Sep-16 05:00N 29°42' W 095°03'0 0.0
2017-Sep-16 04:31N 29°42' W 095°03'0 0.0
2017-Sep-16 04:00N 29°42' W 095°03'0 0.0
2017-Sep-16 03:27N 29°42' W 095°03'0 0.0
2017-Sep-16 03:00N 29°42' W 095°03'0 0.0
2017-Sep-16 02:30N 29°42' W 095°03'0 0.0
2017-Sep-16 01:59N 29°42' W 095°03'0 0.0
2017-Sep-16 01:28N 29°42' W 095°03'0 0.0
2017-Sep-16 00:54N 29°42' W 095°03'0 0.0
2017-Sep-16 00:30N 29°42' W 095°03'0 0.0
2017-Sep-15 23:50N 29°42' W 095°03'0 0.0
2017-Sep-15 23:20N 29°42' W 095°03'0 0.0
2017-Sep-15 23:00N 29°42' W 095°03'0 0.0
2017-Sep-15 22:30N 29°42' W 095°03'0 0.0
2017-Sep-15 21:14N 29°42' W 095°03'0 0.0
2017-Sep-15 21:00N 29°42' W 095°03'0 0.0
2017-Sep-15 20:28N 29°42' W 095°03'0 0.0
2017-Sep-15 20:00N 29°42' W 095°03'0 0.0
2017-Sep-15 19:24N 29°42' W 095°03'0 0.0
2017-Sep-15 18:59N 29°42' W 095°03'0 0.0
2017-Sep-15 18:28N 29°42' W 095°03'0 0.0
2017-Sep-15 17:58N 29°42' W 095°03'0 0.0
2017-Sep-15 17:19N 29°42' W 095°03'0 0.2
2017-Sep-15 17:01N 29°42' W 095°03'0 0.1
2017-Sep-15 16:30N 29°42' W 095°03'0 0.0
2017-Sep-15 15:58N 29°42' W 095°03'0 0.0
2017-Sep-15 15:30N 29°42' W 095°03'0 0.0
2017-Sep-15 15:00N 29°42' W 095°03'0 0.0
2017-Sep-15 14:28N 29°42' W 095°03'0 0.0
2017-Sep-15 14:00N 29°42' W 095°03'0 0.0
2017-Sep-15 13:30N 29°42' W 095°03'0 0.0
2017-Sep-15 13:00N 29°42' W 095°03'0 0.0
2017-Sep-15 12:29N 29°42' W 095°03'0 0.0
2017-Sep-15 12:00N 29°42' W 095°03'0 0.0
2017-Sep-15 11:29N 29°42' W 095°03'0 0.0
2017-Sep-15 10:59N 29°42' W 095°03'0 0.0
2017-Sep-15 10:25N 29°42' W 095°03'0 0.4
2017-Sep-15 09:58N 29°43' W 095°03'1 2.9
2017-Sep-15 09:31N 29°42' W 095°01'3 6.7
2017-Sep-15 09:00N 29°40' W 094°58'3 6.2
2017-Sep-15 08:31N 29°37' W 094°58'3 5.4
2017-Sep-15 08:00N 29°37' W 095°01'0 0.7
2017-Sep-15 07:30N 29°37' W 095°01'0 0.3
2017-Sep-15 07:00N 29°37' W 095°01'0 0.0
2017-Sep-15 06:31N 29°37' W 095°01'0 0.0
2017-Sep-15 06:00N 29°37' W 095°01'0 0.3
2017-Sep-15 05:31N 29°37' W 095°01'0 0.0
2017-Sep-15 05:00N 29°37' W 095°01'0 0.3
2017-Sep-15 04:30N 29°37' W 095°01'0 0.3
2017-Sep-15 04:00N 29°37' W 095°01'0 0.0
2017-Sep-15 03:30N 29°37' W 095°01'0 0.0
2017-Sep-15 02:59N 29°37' W 095°01'0 0.0
2017-Sep-15 02:31N 29°37' W 095°01'0 0.0
2017-Sep-15 02:01N 29°37' W 095°01'0 0.0
2017-Sep-15 01:31N 29°37' W 095°01'0 0.0
2017-Sep-15 01:01N 29°37' W 095°01'0 0.0
2017-Sep-15 00:31N 29°37' W 095°01'0 0.0
2017-Sep-15 00:00N 29°37' W 095°01'0 0.0
2017-Sep-14 23:30N 29°37' W 095°01'0 0.0
2017-Sep-14 23:00N 29°37' W 095°01'0 0.3
2017-Sep-14 22:30N 29°37' W 095°01'0 0.3
2017-Sep-14 22:00N 29°37' W 095°01'0 0.0
2017-Sep-14 21:31N 29°37' W 095°01'0 0.0
2017-Sep-14 21:00N 29°37' W 095°01'0 0.0
2017-Sep-14 20:31N 29°37' W 095°01'0 0.0
2017-Sep-14 20:00N 29°37' W 095°01'0 0.3
2017-Sep-14 19:30N 29°37' W 095°01'0 0.3
2017-Sep-14 19:00N 29°37' W 095°02'0 0.3
2017-Sep-14 18:30N 29°37' W 095°01'0 0.0
2017-Sep-14 18:00N 29°37' W 095°01'0 0.3
2017-Sep-14 17:30N 29°37' W 095°01'0 0.3
2017-Sep-14 17:00N 29°37' W 095°01'0 0.0
2017-Sep-14 16:31N 29°37' W 095°01'0 0.2
2017-Sep-14 16:00N 29°37' W 095°01'0 0.0
2017-Sep-14 15:30N 29°37' W 095°01'0 0.0
2017-Sep-14 15:00N 29°37' W 095°01'0 0.0
2017-Sep-14 14:31N 29°37' W 095°01'0 0.0
2017-Sep-14 14:00N 29°37' W 095°01'0 0.0
2017-Sep-14 13:30N 29°37' W 095°01'0 0.0
2017-Sep-14 13:00N 29°37' W 095°01'0 0.0
2017-Sep-14 12:29N 29°37' W 095°01'0 0.0
2017-Sep-14 12:01N 29°37' W 095°01'0 0.0
2017-Sep-14 11:30N 29°37' W 095°01'0 0.0
2017-Sep-14 11:00N 29°37' W 095°01'0 0.2
2017-Sep-14 10:31N 29°37' W 095°01'0 0.2
2017-Sep-14 10:00N 29°37' W 095°01'0 0.0
2017-Sep-14 09:31N 29°37' W 095°01'0 0.0
2017-Sep-14 09:01N 29°37' W 095°01'0 0.0
2017-Sep-14 08:30N 29°37' W 095°01'0 0.0
2017-Sep-14 08:00N 29°37' W 095°01'0 0.0
2017-Sep-14 07:30N 29°37' W 095°01'0 0.0
2017-Sep-14 07:01N 29°37' W 095°01'0 0.0
2017-Sep-14 06:30N 29°37' W 095°01'0 0.2
2017-Sep-14 06:00N 29°37' W 095°01'0 0.2
2017-Sep-14 05:30N 29°37' W 095°01'0 0.2
2017-Sep-14 05:00N 29°37' W 095°01'0 0.0
2017-Sep-14 04:30N 29°37' W 095°01'0 0.0
2017-Sep-14 04:00N 29°37' W 095°01'0 0.3
2017-Sep-14 03:31N 29°37' W 095°01'0 0.3
2017-Sep-14 03:01N 29°37' W 095°01'1 1.8
2017-Sep-14 02:31N 29°37' W 095°00'2 4.4
2017-Sep-14 02:00N 29°37' W 094°58'2 3.5
2017-Sep-14 01:27N 29°39' W 094°58'2 4.7
2017-Sep-14 01:01N 29°41' W 094°59'3 5.1
2017-Sep-14 00:30N 29°42' W 095°01'1 2.5
2017-Sep-13 23:59N 29°42' W 095°03'0 0.4
2017-Sep-13 23:30N 29°42' W 095°03'0 0.1
2017-Sep-13 23:00N 29°42' W 095°03'0 0.0
2017-Sep-13 22:30N 29°42' W 095°03'0 0.0
2017-Sep-13 22:01N 29°42' W 095°03'0 0.0
2017-Sep-13 21:30N 29°42' W 095°03'0 0.0
2017-Sep-13 21:00N 29°42' W 095°03'0 0.0
2017-Sep-13 20:30N 29°42' W 095°03'0 0.0
2017-Sep-13 19:58N 29°42' W 095°03'0 0.0
2017-Sep-13 19:30N 29°42' W 095°03'0 0.0
2017-Sep-13 18:59N 29°42' W 095°03'0 0.0
2017-Sep-13 18:30N 29°42' W 095°03'0 0.0
2017-Sep-13 18:00N 29°42' W 095°03'0 0.0
2017-Sep-13 17:31N 29°42' W 095°03'0 0.0
2017-Sep-13 17:00N 29°42' W 095°03'0 0.0
2017-Sep-13 16:29N 29°42' W 095°03'0 0.0
2017-Sep-13 16:00N 29°42' W 095°03'0 0.0
2017-Sep-13 15:30N 29°42' W 095°03'0 0.0
2017-Sep-13 15:00N 29°42' W 095°03'0 0.0
2017-Sep-13 14:30N 29°42' W 095°03'0 0.0
2017-Sep-13 14:00N 29°42' W 095°03'0 0.0
2017-Sep-13 13:30N 29°42' W 095°03'0 0.0
2017-Sep-13 13:00N 29°42' W 095°03'0 0.0
2017-Sep-13 12:31N 29°42' W 095°03'0 0.0
2017-Sep-13 12:00N 29°42' W 095°03'0 0.0
2017-Sep-13 11:30N 29°42' W 095°03'0 0.0
2017-Sep-13 11:00N 29°42' W 095°03'0 0.0
2017-Sep-13 10:30N 29°42' W 095°03'0 0.0
2017-Sep-13 10:00N 29°42' W 095°03'0 0.0
2017-Sep-13 09:30N 29°42' W 095°03'0 0.1
2017-Sep-13 09:00N 29°42' W 095°03'0 0.2
2017-Sep-13 08:30N 29°42' W 095°03'0 0.0
2017-Sep-13 08:00N 29°42' W 095°03'0 0.0
2017-Sep-13 07:30N 29°42' W 095°03'0 0.0
2017-Sep-13 06:58N 29°42' W 095°03'0 0.0
2017-Sep-13 06:30N 29°42' W 095°03'0 0.0
2017-Sep-13 05:59N 29°42' W 095°03'0 0.0
2017-Sep-13 05:30N 29°42' W 095°03'0 0.0
2017-Sep-13 05:00N 29°42' W 095°03'0 0.0
2017-Sep-13 04:30N 29°42' W 095°03'0 0.0
2017-Sep-13 03:59N 29°42' W 095°03'0 0.0
2017-Sep-13 03:30N 29°42' W 095°03'0 0.0
2017-Sep-13 03:00N 29°42' W 095°03'0 0.0
2017-Sep-13 02:30N 29°42' W 095°03'0 0.0
2017-Sep-13 02:00N 29°42' W 095°03'0 0.0
2017-Sep-13 01:30N 29°42' W 095°03'0 0.0
2017-Sep-13 01:00N 29°42' W 095°03'0 0.0
2017-Sep-13 00:28N 29°42' W 095°03'0 0.3
2017-Sep-12 23:56N 29°42' W 095°03'0 0.3
2017-Sep-12 23:30N 29°42' W 095°03'0 0.1
2017-Sep-12 23:01N 29°42' W 095°03'0 0.0
2017-Sep-12 22:30N 29°42' W 095°03'0 0.0
2017-Sep-12 22:00N 29°42' W 095°03'0 0.0
2017-Sep-12 21:30N 29°42' W 095°03'0 0.0
2017-Sep-12 21:00N 29°42' W 095°03'0 0.0
2017-Sep-12 20:30N 29°42' W 095°03'0 0.0
2017-Sep-12 20:00N 29°42' W 095°03'0 0.0
2017-Sep-12 19:30N 29°42' W 095°03'0 0.0
2017-Sep-12 19:01N 29°42' W 095°03'0 0.0
2017-Sep-12 18:31N 29°42' W 095°03'0 0.0
2017-Sep-12 18:01N 29°42' W 095°03'0 0.0
2017-Sep-12 17:30N 29°42' W 095°03'0 0.0
2017-Sep-12 17:00N 29°42' W 095°03'0 0.0
2017-Sep-12 16:30N 29°42' W 095°03'0 0.0
2017-Sep-12 16:01N 29°42' W 095°03'0 0.0
2017-Sep-12 15:30N 29°42' W 095°03'0 0.0
2017-Sep-12 15:00N 29°42' W 095°03'0 0.0
2017-Sep-12 14:31N 29°42' W 095°03'0 0.0
2017-Sep-12 14:01N 29°42' W 095°03'0 0.0
2017-Sep-12 13:30N 29°42' W 095°03'0 0.0
2017-Sep-12 13:00N 29°42' W 095°03'0 0.0
2017-Sep-12 12:30N 29°42' W 095°03'0 0.0
2017-Sep-12 12:01N 29°42' W 095°03'0 0.0
2017-Sep-12 11:31N 29°42' W 095°03'0 0.0
2017-Sep-12 11:00N 29°42' W 095°03'0 0.0
2017-Sep-12 10:30N 29°42' W 095°03'0 0.0
2017-Sep-12 10:00N 29°42' W 095°03'0 0.0
2017-Sep-12 09:30N 29°42' W 095°03'0 0.0
2017-Sep-12 09:00N 29°42' W 095°03'0 0.0
2017-Sep-12 08:30N 29°42' W 095°03'0 0.0
2017-Sep-12 08:00N 29°42' W 095°03'0 0.0
2017-Sep-12 07:30N 29°42' W 095°03'0 0.0
2017-Sep-12 07:00N 29°42' W 095°03'0 0.0
2017-Sep-12 06:30N 29°42' W 095°03'0 0.0
2017-Sep-12 06:00N 29°42' W 095°03'0 0.0
2017-Sep-12 05:30N 29°42' W 095°03'0 0.0
2017-Sep-12 05:00N 29°42' W 095°03'0 0.0
2017-Sep-12 04:30N 29°42' W 095°03'0 0.0
2017-Sep-12 04:00N 29°42' W 095°03'0 0.0
2017-Sep-12 03:31N 29°42' W 095°03'0 0.0
2017-Sep-12 03:00N 29°42' W 095°03'0 0.0
2017-Sep-12 02:30N 29°42' W 095°03'0 0.0
2017-Sep-12 02:00N 29°42' W 095°03'0 0.0
2017-Sep-12 01:30N 29°42' W 095°03'0 0.0
2017-Sep-12 01:00N 29°42' W 095°03'0 0.0
2017-Sep-12 00:30N 29°42' W 095°03'0 0.0
2017-Sep-12 00:00N 29°42' W 095°03'0 0.0
2017-Sep-11 23:30N 29°42' W 095°03'0 0.0
2017-Sep-11 23:01N 29°42' W 095°03'0 0.0
2017-Sep-11 22:30N 29°42' W 095°03'0 0.0
2017-Sep-11 22:01N 29°42' W 095°03'0 0.0
2017-Sep-11 21:30N 29°42' W 095°03'0 0.0
2017-Sep-11 21:00N 29°42' W 095°03'0 0.0
2017-Sep-11 20:31N 29°42' W 095°03'0 0.0
2017-Sep-11 20:01N 29°42' W 095°03'0 0.0
2017-Sep-11 19:30N 29°42' W 095°03'0 0.0
2017-Sep-11 19:00N 29°42' W 095°03'0 0.0
2017-Sep-11 18:31N 29°42' W 095°03'0 0.0
2017-Sep-11 18:01N 29°42' W 095°03'0 0.0
2017-Sep-11 17:30N 29°42' W 095°03'0 0.0
2017-Sep-11 17:01N 29°42' W 095°03'0 0.0
2017-Sep-11 16:30N 29°42' W 095°03'0 0.0
2017-Sep-11 16:01N 29°42' W 095°03'0 0.0
2017-Sep-11 15:31N 29°42' W 095°03'0 0.0
2017-Sep-11 15:00N 29°42' W 095°03'0 0.0
2017-Sep-11 14:30N 29°42' W 095°03'0 0.0
2017-Sep-11 14:00N 29°42' W 095°03'0 0.0
2017-Sep-11 13:30N 29°42' W 095°03'0 0.0
2017-Sep-11 13:00N 29°42' W 095°03'0 0.0
2017-Sep-11 12:30N 29°42' W 095°03'0 0.0
2017-Sep-11 12:00N 29°42' W 095°03'0 0.0
2017-Sep-11 11:30N 29°42' W 095°03'0 0.0
2017-Sep-11 11:01N 29°42' W 095°03'0 0.0
2017-Sep-11 10:31N 29°42' W 095°03'0 0.0
2017-Sep-11 10:01N 29°42' W 095°03'0 0.0
2017-Sep-11 09:30N 29°42' W 095°03'0 0.0
2017-Sep-11 09:01N 29°42' W 095°03'  

Dump ship's entire track history